createdAt,value
2018-02-27T00:00:29.209Z,-5.10
2018-02-27T00:03:14.937Z,-5.10
2018-02-27T00:06:03.689Z,-5.10
2018-02-27T00:11:35.638Z,-5.10
2018-02-27T00:14:04.932Z,-5.10
2018-02-27T00:16:34.436Z,-5.10
2018-02-27T00:25:22.454Z,-5.00
2018-02-27T00:27:59.947Z,-5.00
2018-02-27T00:30:52.337Z,-5.00
2018-02-27T00:33:21.647Z,-5.00
2018-02-27T00:35:50.930Z,-5.10
2018-02-27T00:38:20.264Z,-5.10
2018-02-27T00:40:49.647Z,-5.10
2018-02-27T00:43:18.974Z,-5.10
2018-02-27T00:45:48.344Z,-5.00
2018-02-27T00:48:17.655Z,-5.00
2018-02-27T00:50:47.014Z,-5.00
2018-02-27T00:53:16.340Z,-5.10
2018-02-27T00:55:45.643Z,-5.00
2018-02-27T00:58:15.022Z,-5.10
2018-02-27T01:00:44.438Z,-5.00
2018-02-27T01:03:14.704Z,-5.00
2018-02-27T01:06:03.737Z,-5.00
2018-02-27T01:14:52.222Z,-5.10
2018-02-27T01:17:21.627Z,-5.10
2018-02-27T01:23:08.344Z,-5.10
2018-02-27T01:25:37.661Z,-5.10
2018-02-27T01:28:06.986Z,-5.20
2018-02-27T01:30:36.286Z,-5.20
2018-02-27T01:33:05.597Z,-5.30
2018-02-27T01:35:34.887Z,-5.40
2018-02-27T01:38:04.180Z,-5.40
2018-02-27T01:40:33.466Z,-5.50
2018-02-27T01:43:04.081Z,-5.50
2018-02-27T01:45:33.360Z,-5.60
2018-02-27T01:48:02.665Z,-5.60
2018-02-27T01:50:32.047Z,-5.70
2018-02-27T01:56:18.181Z,-5.70
2018-02-27T01:59:04.004Z,-5.80
2018-02-27T02:01:33.304Z,-5.80
2018-02-27T02:04:02.602Z,-5.80
2018-02-27T02:06:31.888Z,-5.70
2018-02-27T02:14:57.744Z,-5.60
2018-02-27T02:17:27.065Z,-5.60
2018-02-27T02:19:56.368Z,-5.60
2018-02-27T02:22:32.078Z,-5.60
2018-02-27T02:25:01.343Z,-5.60
2018-02-27T02:27:30.659Z,-5.60
2018-02-27T02:29:59.932Z,-5.60
2018-02-27T02:32:29.222Z,-5.60
2018-02-27T02:34:58.534Z,-5.60
2018-02-27T02:37:28.979Z,-5.60
2018-02-27T02:39:58.870Z,-5.60
2018-02-27T02:42:28.148Z,-5.60
2018-02-27T02:44:57.882Z,-5.70
2018-02-27T02:47:27.177Z,-5.70
2018-02-27T02:49:56.471Z,-5.80
2018-02-27T02:52:25.748Z,-5.80
2018-02-27T02:54:55.008Z,-5.90
2018-02-27T02:57:24.345Z,-6.00
2018-02-27T02:59:53.604Z,-6.00
2018-02-27T03:02:22.941Z,-6.00
2018-02-27T03:04:53.030Z,-6.20
2018-02-27T03:07:22.380Z,-6.30
2018-02-27T03:09:51.700Z,-6.30
2018-02-27T03:15:21.412Z,-6.30
2018-02-27T03:17:51.771Z,-6.30
2018-02-27T03:20:21.035Z,-6.40
2018-02-27T03:22:50.301Z,-6.40
2018-02-27T03:25:19.623Z,-6.40
2018-02-27T03:27:48.910Z,-6.50
2018-02-27T03:34:00.644Z,-6.60
2018-02-27T03:36:30.010Z,-6.60
2018-02-27T03:38:59.390Z,-6.60
2018-02-27T03:41:28.934Z,-6.60
2018-02-27T03:43:58.288Z,-6.70
2018-02-27T03:46:27.690Z,-6.70
2018-02-27T03:48:56.992Z,-6.70
2018-02-27T03:54:45.775Z,-6.80
2018-02-27T03:57:15.087Z,-6.80
2018-02-27T03:59:44.387Z,-6.90
2018-02-27T04:05:17.286Z,-7.00
2018-02-27T04:07:46.602Z,-7.00
2018-02-27T04:10:28.883Z,-7.00
2018-02-27T04:12:58.212Z,-7.10
2018-02-27T04:18:44.479Z,-7.20
2018-02-27T04:21:14.323Z,-7.20
2018-02-27T04:23:44.064Z,-7.30
2018-02-27T04:26:14.724Z,-7.30
2018-02-27T04:28:44.080Z,-7.30
2018-02-27T04:31:13.419Z,-7.30
2018-02-27T04:33:42.696Z,-7.40
2018-02-27T04:36:12.000Z,-7.40
2018-02-27T04:38:41.384Z,-7.40
2018-02-27T04:41:32.012Z,-7.40
2018-02-27T04:44:01.274Z,-7.50
2018-02-27T04:46:30.543Z,-7.50
2018-02-27T04:52:14.546Z,-7.50
2018-02-27T05:01:02.953Z,-7.60
2018-02-27T05:09:56.008Z,-7.70
2018-02-27T05:12:25.295Z,-7.70
2018-02-27T05:14:54.879Z,-7.70
2018-02-27T05:17:24.144Z,-7.70
2018-02-27T05:20:02.168Z,-7.80
2018-02-27T05:22:31.513Z,-7.80
2018-02-27T05:25:07.407Z,-7.80
2018-02-27T05:27:59.770Z,-7.80
2018-02-27T05:33:29.837Z,-7.80
2018-02-27T05:35:59.411Z,-7.80
2018-02-27T05:45:02.893Z,-7.90
2018-02-27T05:47:32.197Z,-7.90
2018-02-27T05:50:31.564Z,-7.90
2018-02-27T05:53:00.988Z,-7.90
2018-02-27T05:55:31.268Z,-7.90
2018-02-27T05:58:00.590Z,-8.00
2018-02-27T06:00:30.243Z,-8.00
2018-02-27T06:02:59.588Z,-8.00
2018-02-27T06:05:28.904Z,-8.10
2018-02-27T06:07:58.210Z,-8.10
2018-02-27T06:10:27.623Z,-8.10
2018-02-27T06:12:56.900Z,-8.10
2018-02-27T06:15:26.163Z,-8.10
2018-02-27T06:23:41.666Z,-8.20
2018-02-27T06:26:11.247Z,-8.20
2018-02-27T06:28:40.839Z,-8.20
2018-02-27T06:31:10.146Z,-8.20
2018-02-27T06:33:39.840Z,-8.30
2018-02-27T06:36:09.105Z,-8.30
2018-02-27T06:38:38.441Z,-8.30
2018-02-27T06:41:08.071Z,-7.70
2018-02-27T06:43:37.436Z,-8.30
2018-02-27T06:46:06.718Z,-8.30
2018-02-27T06:48:38.000Z,-8.20
2018-02-27T06:51:07.290Z,-8.20
2018-02-27T06:53:36.559Z,-8.10
2018-02-27T06:56:05.858Z,-8.00
2018-02-27T06:58:36.079Z,-7.70
2018-02-27T07:01:15.475Z,-7.60
2018-02-27T07:03:45.510Z,-7.00
2018-02-27T07:06:14.803Z,-7.10
2018-02-27T07:08:44.067Z,-6.80
2018-02-27T07:11:13.327Z,-6.60
2018-02-27T07:13:42.623Z,-6.30
2018-02-27T07:16:12.682Z,-6.10
2018-02-27T07:18:41.980Z,-6.10
2018-02-27T07:21:11.258Z,-6.10
2018-02-27T07:23:40.564Z,-6.30
2018-02-27T07:26:09.861Z,-6.60
2018-02-27T07:28:39.123Z,-6.70
2018-02-27T07:31:10.335Z,-6.90
2018-02-27T07:33:39.628Z,-7.10
2018-02-27T07:36:09.763Z,-6.90
2018-02-27T07:38:39.030Z,-7.00
2018-02-27T07:41:08.343Z,-6.70
2018-02-27T07:43:37.660Z,-6.50
2018-02-27T07:46:07.014Z,-6.40
2018-02-27T07:48:36.274Z,-6.30
2018-02-27T07:51:05.537Z,-6.40
2018-02-27T07:53:35.585Z,-6.30
2018-02-27T07:56:04.847Z,-6.30
2018-02-27T07:58:34.138Z,-6.30
2018-02-27T08:01:03.463Z,-5.80
2018-02-27T08:03:32.722Z,-5.70
2018-02-27T08:06:02.003Z,-5.20
2018-02-27T08:08:32.049Z,-5.00
2018-02-27T08:11:01.372Z,-5.10
2018-02-27T08:13:31.405Z,-4.50
2018-02-27T08:16:01.656Z,-4.50
2018-02-27T08:18:30.921Z,-4.40
2018-02-27T08:21:00.982Z,-4.30
2018-02-27T08:23:30.266Z,-4.30
2018-02-27T08:26:00.324Z,-4.00
2018-02-27T08:28:29.602Z,-4.10
2018-02-27T08:30:58.864Z,-3.80
2018-02-27T08:33:28.207Z,-3.50
2018-02-27T08:35:57.475Z,-3.70
2018-02-27T08:38:26.743Z,-3.70
2018-02-27T08:40:56.023Z,-3.50
2018-02-27T08:43:25.301Z,-3.60
2018-02-27T08:45:54.554Z,-3.30
2018-02-27T08:48:23.852Z,-3.70
2018-02-27T08:50:53.116Z,-3.80
2018-02-27T08:53:23.170Z,-3.70
2018-02-27T08:55:52.436Z,-3.70
2018-02-27T08:58:21.805Z,-3.60
2018-02-27T09:00:51.091Z,-3.40
2018-02-27T09:03:20.812Z,-3.20
2018-02-27T09:05:50.840Z,-3.30
2018-02-27T09:08:20.906Z,-3.20
2018-02-27T09:10:50.242Z,-3.20
2018-02-27T09:13:19.547Z,-3.10
2018-02-27T09:15:48.846Z,-3.00
2018-02-27T09:18:18.211Z,-2.80
2018-02-27T09:20:47.550Z,-2.50
2018-02-27T09:23:16.909Z,-2.20
2018-02-27T09:25:46.227Z,-2.00
2018-02-27T09:28:15.493Z,-1.70
2018-02-27T09:30:44.787Z,-1.40
2018-02-27T09:33:14.081Z,-1.50
2018-02-27T09:35:43.392Z,-1.50
2018-02-27T09:38:12.710Z,-1.80
2018-02-27T09:40:42.301Z,-2.00
2018-02-27T09:43:11.535Z,-2.30
2018-02-27T09:45:41.618Z,-2.40
2018-02-27T09:48:11.187Z,-2.50
2018-02-27T09:50:41.243Z,-2.20
2018-02-27T09:53:10.546Z,-2.30
2018-02-27T09:55:39.873Z,-2.50
2018-02-27T09:58:09.143Z,-2.50
2018-02-27T10:00:38.400Z,-2.20
2018-02-27T10:03:07.696Z,-2.20
2018-02-27T10:05:37.047Z,-2.00
2018-02-27T10:08:06.408Z,-1.80
2018-02-27T10:10:36.483Z,-1.60
2018-02-27T10:13:05.773Z,-1.60
2018-02-27T10:15:35.037Z,-1.60
2018-02-27T10:18:04.351Z,-1.30
2018-02-27T10:20:33.608Z,-1.50
2018-02-27T10:23:02.928Z,-1.40
2018-02-27T10:25:32.201Z,-1.40
2018-02-27T10:28:01.827Z,-1.20
2018-02-27T10:30:31.871Z,-0.80
2018-02-27T10:33:01.988Z,-0.60
2018-02-27T10:35:31.289Z,-0.60
2018-02-27T10:38:00.567Z,-0.70
2018-02-27T10:40:29.871Z,-0.90
2018-02-27T10:42:59.128Z,-1.10
2018-02-27T10:45:29.206Z,-0.40
2018-02-27T10:47:58.474Z,-0.40
2018-02-27T10:50:28.534Z,0.00
2018-02-27T10:52:57.887Z,-0.10
2018-02-27T10:55:27.125Z,0.10
2018-02-27T10:57:56.405Z,0.20
2018-02-27T11:00:31.274Z,0.20
2018-02-27T11:03:00.654Z,0.20
2018-02-27T11:05:29.927Z,0.10
2018-02-27T11:07:59.188Z,0.00
2018-02-27T11:10:28.556Z,-0.20
2018-02-27T11:12:57.862Z,-0.20
2018-02-27T11:15:27.142Z,0.00
2018-02-27T11:17:56.415Z,0.20
2018-02-27T11:20:25.670Z,0.70
2018-02-27T11:22:54.953Z,0.70
2018-02-27T11:25:24.227Z,0.00
2018-02-27T11:27:53.519Z,-0.20
2018-02-27T11:30:22.791Z,-0.10
2018-02-27T11:32:52.078Z,0.10
2018-02-27T11:35:21.350Z,0.20
2018-02-27T11:37:50.645Z,0.40
2018-02-27T11:40:19.906Z,0.40
2018-02-27T11:42:49.196Z,0.30
2018-02-27T11:45:18.632Z,0.40
2018-02-27T11:47:47.952Z,0.50
2018-02-27T11:50:17.202Z,0.80
2018-02-27T11:52:46.477Z,1.00
2018-02-27T11:55:15.778Z,1.00
2018-02-27T11:57:45.078Z,0.80
2018-02-27T12:00:14.502Z,0.60
2018-02-27T12:02:43.775Z,0.50
2018-02-27T12:05:13.074Z,0.60
2018-02-27T12:07:42.380Z,0.90
2018-02-27T12:10:11.639Z,0.50
2018-02-27T12:12:41.694Z,0.50
2018-02-27T12:15:10.962Z,0.40
2018-02-27T12:17:41.014Z,0.90
2018-02-27T12:20:10.306Z,0.90
2018-02-27T12:22:39.595Z,1.10
2018-02-27T12:25:08.835Z,1.00
2018-02-27T12:27:38.216Z,0.80
2018-02-27T12:30:07.502Z,0.80
2018-02-27T12:32:36.777Z,1.00
2018-02-27T12:35:06.786Z,1.00
2018-02-27T12:37:36.070Z,0.90
2018-02-27T12:40:05.315Z,0.90
2018-02-27T12:42:34.604Z,1.20
2018-02-27T12:45:03.872Z,1.30
2018-02-27T12:47:33.132Z,1.50
2018-02-27T12:50:02.453Z,1.70
2018-02-27T12:52:31.686Z,1.60
2018-02-27T12:55:01.740Z,1.50
2018-02-27T12:57:31.075Z,1.50
2018-02-27T13:00:00.659Z,1.40
2018-02-27T13:02:29.911Z,1.50
2018-02-27T13:04:59.219Z,1.30
2018-02-27T13:07:29.239Z,1.40
2018-02-27T13:09:58.797Z,1.30
2018-02-27T13:12:28.050Z,1.30
2018-02-27T13:14:57.316Z,1.30
2018-02-27T13:17:26.643Z,1.00
2018-02-27T13:19:55.898Z,0.80
2018-02-27T13:22:25.480Z,0.70
2018-02-27T13:24:55.526Z,0.20
2018-02-27T13:27:24.859Z,0.20
2018-02-27T13:29:54.166Z,0.00
2018-02-27T13:32:23.462Z,0.10
2018-02-27T13:34:53.478Z,0.10
2018-02-27T13:37:23.533Z,0.00
2018-02-27T13:39:52.832Z,-0.10
2018-02-27T13:42:22.442Z,-0.30
2018-02-27T13:44:52.454Z,-0.10
2018-02-27T13:47:21.770Z,-0.10
2018-02-27T13:49:51.837Z,-0.20
2018-02-27T13:52:21.191Z,-0.30
2018-02-27T13:54:50.399Z,-0.50
2018-02-27T13:57:19.742Z,-0.40
2018-02-27T13:59:49.814Z,-0.50
2018-02-27T14:02:19.075Z,-0.60
2018-02-27T14:04:48.384Z,-0.50
2018-02-27T14:07:17.698Z,-0.60
2018-02-27T14:09:46.959Z,-0.60
2018-02-27T14:12:16.243Z,-0.50
2018-02-27T14:14:46.317Z,-0.50
2018-02-27T14:17:15.641Z,-0.50
2018-02-27T14:19:44.917Z,-0.50
2018-02-27T14:22:14.256Z,-0.80
2018-02-27T14:24:43.571Z,-1.00
2018-02-27T14:27:12.867Z,-1.10
2018-02-27T14:29:42.127Z,-1.10
2018-02-27T14:32:11.498Z,-1.20
2018-02-27T14:34:40.785Z,-1.20
2018-02-27T14:37:10.075Z,-1.20
2018-02-27T14:39:39.351Z,-1.10
2018-02-27T14:42:08.673Z,-1.20
2018-02-27T14:44:37.932Z,-1.20
2018-02-27T14:47:07.226Z,-1.30
2018-02-27T14:49:37.298Z,-1.40
2018-02-27T14:52:07.380Z,-1.40
2018-02-27T14:54:36.631Z,-1.50
2018-02-27T14:57:06.287Z,-1.50
2018-02-27T14:59:35.571Z,-1.50
2018-02-27T15:02:04.847Z,-1.60
2018-02-27T15:04:34.888Z,-1.80
2018-02-27T15:07:04.535Z,-1.80
2018-02-27T15:09:33.799Z,-1.90
2018-02-27T15:12:03.858Z,-1.90
2018-02-27T15:14:33.134Z,-1.90
2018-02-27T15:17:02.407Z,-1.90
2018-02-27T15:19:31.699Z,-2.00
2018-02-27T15:22:01.035Z,-2.10
2018-02-27T15:24:30.303Z,-2.20
2018-02-27T15:26:59.543Z,-2.20
2018-02-27T15:29:28.822Z,-2.20
2018-02-27T15:31:58.852Z,-2.00
2018-02-27T15:34:28.154Z,-2.10
2018-02-27T15:36:58.183Z,-2.10
2018-02-27T15:39:28.242Z,-2.20
2018-02-27T15:41:57.522Z,-2.20
2018-02-27T15:44:27.580Z,-2.20
2018-02-27T15:46:56.883Z,-2.20
2018-02-27T15:49:26.138Z,-2.10
2018-02-27T15:51:55.428Z,-2.10
2018-02-27T15:54:24.719Z,-2.20
2018-02-27T15:56:54.015Z,-2.50
2018-02-27T15:59:24.034Z,-2.60
2018-02-27T16:01:53.364Z,-2.70
2018-02-27T16:04:23.403Z,-2.80
2018-02-27T16:06:52.954Z,-2.90
2018-02-27T16:09:22.227Z,-2.80
2018-02-27T16:11:51.514Z,-2.90
2018-02-27T16:14:20.796Z,-2.90
2018-02-27T16:16:50.074Z,-3.00
2018-02-27T16:19:19.399Z,-3.00
2018-02-27T16:21:48.688Z,-3.00
2018-02-27T16:24:18.728Z,-3.10
2018-02-27T16:26:48.032Z,-3.10
2018-02-27T16:29:17.325Z,-3.10
2018-02-27T16:31:46.617Z,-3.20
2018-02-27T16:34:15.905Z,-3.20
2018-02-27T16:36:45.210Z,-3.30
2018-02-27T16:39:14.488Z,-3.30
2018-02-27T16:41:44.571Z,-3.40
2018-02-27T16:44:13.871Z,-3.50
2018-02-27T16:46:43.171Z,-3.50
2018-02-27T16:49:12.509Z,-3.50
2018-02-27T16:51:41.792Z,-3.50
2018-02-27T16:54:11.085Z,-3.60
2018-02-27T16:56:40.393Z,-3.60
2018-02-27T16:59:09.688Z,-3.70
2018-02-27T17:01:39.742Z,-3.70
2018-02-27T17:04:09.159Z,-3.80
2018-02-27T17:06:38.487Z,-3.80
2018-02-27T17:09:07.875Z,-3.80
2018-02-27T17:11:37.135Z,-3.90
2018-02-27T17:14:06.480Z,-3.90
2018-02-27T17:16:35.747Z,-4.00
2018-02-27T17:19:05.063Z,-4.00
2018-02-27T17:21:34.367Z,-4.00
2018-02-27T17:24:03.682Z,-4.00
2018-02-27T17:26:33.700Z,-4.00
2018-02-27T17:29:02.979Z,-4.10
2018-02-27T17:31:33.056Z,-4.10
2018-02-27T17:34:02.329Z,-4.20
2018-02-27T17:36:32.408Z,-4.20
2018-02-27T17:39:01.708Z,-4.20
2018-02-27T17:41:31.033Z,-4.20
2018-02-27T17:44:00.327Z,-4.20
2018-02-27T17:46:29.731Z,-4.20
2018-02-27T17:48:58.997Z,-4.20
2018-02-27T17:51:28.284Z,-4.30
2018-02-27T17:53:59.522Z,-4.30
2018-02-27T17:56:29.237Z,-4.30
2018-02-27T17:59:02.817Z,-4.30
2018-02-27T18:01:34.158Z,-4.40
2018-02-27T18:04:17.246Z,-4.40
2018-02-27T18:06:47.562Z,-4.50
2018-02-27T18:09:16.858Z,-4.50
2018-02-27T18:11:47.607Z,-4.50
2018-02-27T18:14:17.845Z,-4.40
2018-02-27T18:16:47.105Z,-4.50
2018-02-27T18:19:16.434Z,-4.50
2018-02-27T18:21:45.797Z,-4.50
2018-02-27T18:24:15.899Z,-4.60
2018-02-27T18:26:45.591Z,-4.60
2018-02-27T18:29:14.935Z,-4.60
2018-02-27T18:31:44.290Z,-4.60
2018-02-27T18:34:14.288Z,-4.60
2018-02-27T18:36:43.636Z,-4.60
2018-02-27T18:39:12.982Z,-4.70
2018-02-27T18:41:42.283Z,-4.70
2018-02-27T18:44:11.734Z,-4.70
2018-02-27T18:46:40.934Z,-4.70
2018-02-27T18:49:10.556Z,-4.70
2018-02-27T18:51:39.912Z,-4.70
2018-02-27T18:54:09.202Z,-4.80
2018-02-27T18:56:47.442Z,-4.80
2018-02-27T18:59:17.555Z,-4.80
2018-02-27T19:04:47.311Z,-4.90
2018-02-27T19:07:16.721Z,-4.90
2018-02-27T19:09:46.124Z,-4.90
2018-02-27T19:17:41.569Z,-5.00
2018-02-27T19:20:11.050Z,-5.00
2018-02-27T19:22:45.719Z,-5.10
2018-02-27T19:25:19.507Z,-5.10
2018-02-27T19:27:49.243Z,-5.10
2018-02-27T19:30:18.560Z,-5.10
2018-02-27T19:32:47.849Z,-5.10
2018-02-27T19:35:17.293Z,-5.10
2018-02-27T19:37:46.669Z,-5.10
2018-02-27T19:46:26.885Z,-5.20
2018-02-27T19:48:58.335Z,-5.20
2018-02-27T19:51:27.910Z,-5.30
2018-02-27T19:53:58.129Z,-5.30
2018-02-27T19:56:27.662Z,-5.40
2018-02-27T19:58:57.989Z,-5.40
2018-02-27T20:01:27.322Z,-5.50
2018-02-27T20:03:56.746Z,-5.50
2018-02-27T20:06:26.781Z,-5.50
2018-02-27T20:08:59.593Z,-5.50
2018-02-27T20:11:29.315Z,-5.50
2018-02-27T20:13:58.694Z,-5.60
2018-02-27T20:16:29.393Z,-5.60
2018-02-27T20:19:05.097Z,-5.60
2018-02-27T20:21:35.405Z,-5.60
2018-02-27T20:24:10.405Z,-5.70
2018-02-27T20:26:41.070Z,-5.60
2018-02-27T20:29:20.061Z,-5.60
2018-02-27T20:31:49.418Z,-5.70
2018-02-27T20:34:18.846Z,-5.70
2018-02-27T20:36:48.231Z,-5.70
2018-02-27T20:42:06.606Z,-5.80
2018-02-27T20:44:44.458Z,-5.90
2018-02-27T20:47:13.828Z,-5.90
2018-02-27T20:49:43.278Z,-5.80
2018-02-27T20:52:12.640Z,-5.90
2018-02-27T20:54:42.016Z,-5.90
2018-02-27T20:57:11.550Z,-6.00
2018-02-27T20:59:56.952Z,-6.00
2018-02-27T21:02:32.337Z,-5.90
2018-02-27T21:05:01.668Z,-6.00
2018-02-27T21:07:41.565Z,-6.00
2018-02-27T21:10:10.989Z,-6.10
2018-02-27T21:12:40.354Z,-6.10
2018-02-27T21:15:11.253Z,-6.10
2018-02-27T21:17:41.646Z,-6.10
2018-02-27T21:20:11.173Z,-6.20
2018-02-27T21:22:40.497Z,-6.20
2018-02-27T21:25:09.803Z,-6.20
2018-02-27T21:27:39.808Z,-6.20
2018-02-27T21:30:18.128Z,-6.30
2018-02-27T21:32:47.583Z,-6.30
2018-02-27T21:35:17.071Z,-6.30
2018-02-27T21:37:46.431Z,-6.30
2018-02-27T21:40:15.753Z,-6.40
2018-02-27T21:42:45.075Z,-6.40
2018-02-27T21:45:14.433Z,-6.30
2018-02-27T21:47:43.778Z,-6.40
2018-02-27T21:50:13.145Z,-6.40
2018-02-27T21:52:42.482Z,-6.50
2018-02-27T21:55:11.791Z,-6.50
2018-02-27T21:57:41.096Z,-6.50
2018-02-27T22:00:10.552Z,-6.50
2018-02-27T22:02:40.157Z,-6.60
2018-02-27T22:05:09.656Z,-6.60
2018-02-27T22:07:38.935Z,-6.60
2018-02-27T22:10:08.272Z,-6.70
2018-02-27T22:12:37.646Z,-6.70
2018-02-27T22:15:06.971Z,-6.80
2018-02-27T22:17:43.006Z,-6.80
2018-02-27T22:20:12.376Z,-6.90
2018-02-27T22:22:42.201Z,-6.90
2018-02-27T22:25:12.453Z,-6.90
2018-02-27T22:30:58.844Z,-6.90
2018-02-27T22:33:28.116Z,-6.90
2018-02-27T22:35:57.484Z,-6.90
2018-02-27T22:38:26.796Z,-6.90
2018-02-27T22:40:56.432Z,-6.90
2018-02-27T22:43:28.958Z,-7.00
2018-02-27T22:45:58.424Z,-7.00
2018-02-27T22:48:29.454Z,-7.00
2018-02-27T22:50:58.892Z,-7.00
2018-02-27T22:53:28.188Z,-7.00
2018-02-27T22:59:06.050Z,-7.00
2018-02-27T23:01:35.412Z,-7.00
2018-02-27T23:04:04.722Z,-7.00
2018-02-27T23:06:34.051Z,-7.10
2018-02-27T23:09:03.324Z,-7.10
2018-02-27T23:11:32.652Z,-7.10
2018-02-27T23:14:01.996Z,-7.10
2018-02-27T23:16:37.245Z,-7.20
2018-02-27T23:19:06.567Z,-7.20
2018-02-27T23:21:35.835Z,-7.20
2018-02-27T23:24:05.556Z,-7.20
2018-02-27T23:26:36.084Z,-7.20
2018-02-27T23:29:06.317Z,-7.20
2018-02-27T23:31:55.362Z,-7.20
2018-02-27T23:34:24.757Z,-7.30
2018-02-27T23:36:54.072Z,-7.30
2018-02-27T23:39:23.404Z,-7.30
2018-02-27T23:41:58.537Z,-7.40
2018-02-27T23:44:27.892Z,-7.30
2018-02-27T23:46:57.125Z,-7.40
2018-02-27T23:49:26.447Z,-7.30
2018-02-27T23:51:55.759Z,-7.30
2018-02-27T23:54:35.349Z,-7.40
2018-02-27T23:57:33.900Z,-7.40
